Airville, Pennsylvania
Current Conditions -  °F | °C
As of 10:53 AM on Friday 24 Oct 2014 (Local Time) from KLNS Reporting Station
Few Clouds Few Clouds  
Wind Chill: 16°   Ceiling: Unl
Heat Index: 16°   Visibility: 10mi
Dew Point:   Wind: 20mph
Humidity: 54%   Direction: 320°NW
Pressure: 29.91"   Gusts: 25mph
Location:  39.83°N, 76.41°W
Report Text: KLNS 241453Z 32017G22KT 10SM FEW040 16/07 A2991 RMK AO2 SLP128 T01610067 50004
Loading
Personal Weather Stations






























Interactive Weather Map
Tropical Storm Tracking
New forecast layout! Learn more

10-Day Weather Forecast

Advertisements
Track Severe Weather on mobile